Aérodrome :
LOGIN :

S'inscrire | Disclaimer

   EN    FR    IT 

 










Légende :    VFR   VFR Marginal   IFR   IFR Intensif   IFR Très Intensif
Visi : 
Plafond : 
>= 8 km
>= 3000ft
5 à 8 km
1000 à 3000 ft
1500m à 5 km
500 à 1000 ft
800 à 1500m
200 à 500 ft
< 800m
< 200 ft
Symboles :   Orages  Brouillard  Fortes neiges  Fortes précipitations  Vent > 20 kt
SIGMETs :   Divers  Orages  Givrage  Turbulence  Onde Orograph.  Cendres Volcan.







- Altitude de l'aérodrome : 384 ft
- Code IATA : ESU


GMMI - Mogador Int.

DERNIER METAR :
  • 220800Z VRB02KT 8000 NSC 17/11 Q1018 NOSIG

METARs EXPIRÉS :
  • 220700Z VRB01KT 8000 NSC 16/11 Q1017 NOSIG

TAF TAF GMMI
Valide du 22 à 06h jusqu'au 23 à 12h UTC


220500Z 2206/2312 02006KT 6000 NSC
PROB30
TEMPO 2212/2223 5000 -RA SCT016 BKN040
Pas de NOTAMs connus pour ce terrain.
2 SIGMETs publiés pour la FIR Casablanca (GMMM) :
 
Turbulence forte
GMMM SIGMET T1 VALID 221030/221430 GMMC
GMMM CASABLANCA FIR SEV TURB FCST WI N3455 W00637 - N2833 W01332 - N 2954 W01614 - N3625 W01030 - N3455 W00637 FL270/FL350 MOV NE NC=
Orages noyés dans la masse
GMMM SIGMET 01 VALID 220730/221030 GMMC
GMMM CASABLANCA FIR EMBD TS OBS WI N3501 W00930 - N3349 W01112 - N34 38 W01206 - N3534 W01042 - N3501 W00930 TOP FL280 MOV NE NC=



MET'MAP, la Météo Aéronautique d'un coup d'oeil ! - Copyright ORBIFLY Décembre 2007 - Disclaimer

ORBIFLY MET'MAP TEAM :

Programmation & Développement : Alexandra Zaïnal
Conception & Développement : Baudouin d'Aumeries
Co-Programmation & Développement : Marc-Olivier Méhu
Soutien technique & logistique : Manuel Goepfert

Contact : metmap@orbifly.com




SOURCES & CREDITS :

   NOAA